Time;durP1;ratioP1;P1;durP2;ratioP2;P2;SDS_P1;SDS_P2;PMS_P1;PMS_P2;Temp;Humidity;BMP_temperature;BMP_pressure;BME280_temperature;BME280_humidity;BME280_pressure;Samples;Min_cycle;Max_cycle;Signal;HPM_P1;HPM_P2
2023/07/11 00:00:07;;;;;;;;;4.00;4.00;;;;;25.72;36.31;100979.34;5098563;27;45366;-79
2023/07/11 00:02:33;;;;;;;;;4.75;3.50;;;;;25.69;36.13;100976.97;5099674;27;45532;-79
2023/07/11 00:04:59;;;;;;;;;2.00;2.00;;;;;25.66;36.06;100960.97;5099124;27;45480;-78
2023/07/11 00:07:25;;;;;;;;;3.00;3.00;;;;;25.33;36.65;100915.78;5096533;27;45724;-78
2023/07/11 00:09:50;;;;;;;;;1.75;1.75;;;;;25.33;36.33;100918.50;5090736;27;45297;-78
2023/07/11 00:12:16;;;;;;;;;4.75;2.25;;;;;25.51;36.51;100951.78;5098203;27;45519;-79
2023/07/11 00:14:42;;;;;;;;;2.00;2.00;;;;;25.43;36.53;100944.50;5089917;27;47203;-78
2023/07/11 00:17:07;;;;;;;;;4.40;4.00;;;;;25.51;36.79;100952.63;5092039;27;45363;-77
2023/07/11 00:19:50;;;;;;;;;3.00;3.00;;;;;25.38;36.78;100941.44;5098832;27;45333;-78
2023/07/11 00:22:18;;;;;;;;;4.00;4.00;;;;;25.44;36.94;100954.38;5098661;27;45258;-78
2023/07/11 00:24:45;;;;;;;;;3.75;2.75;;;;;25.22;37.13;100925.16;5097079;27;46237;-77
2023/07/11 00:27:11;;;;;;;;;3.50;3.50;;;;;25.37;37.21;100947.91;5082244;27;45456;-77
2023/07/11 00:29:38;;;;;;;;;2.75;2.75;;;;;25.28;36.95;100932.63;5078394;27;45322;-78
2023/07/11 00:32:04;;;;;;;;;6.00;3.75;;;;;25.07;37.23;100900.50;5097231;27;45481;-78
2023/07/11 00:34:29;;;;;;;;;6.25;3.50;;;;;24.80;37.58;100862.75;5098133;27;45683;-78
2023/07/11 00:36:55;;;;;;;;;3.00;3.00;;;;;25.07;37.79;100905.09;5096930;27;45359;-78
2023/07/11 00:39:20;;;;;;;;;3.00;3.00;;;;;25.26;37.93;100949.16;5097097;27;45499;-78
2023/07/11 00:41:46;;;;;;;;;5.00;3.50;;;;;25.25;37.88;100949.28;5097764;27;45621;-78
2023/07/11 00:44:16;;;;;;;;;2.75;2.75;;;;;25.03;38.40;100920.94;5097751;27;45290;-78
2023/07/11 00:46:42;;;;;;;;;5.00;4.00;;;;;25.21;38.30;100950.66;5096497;27;45468;-78
2023/07/11 00:49:13;;;;;;;;;3.00;1.75;;;;;25.17;37.98;100942.00;5081112;27;45340;-78
2023/07/11 00:51:51;;;;;;;;;4.50;3.25;;;;;24.95;38.01;100910.88;5077652;27;45459;-78
2023/07/11 00:54:21;;;;;;;;;3.00;3.00;;;;;25.10;38.36;100942.84;5086610;27;46096;-78
2023/07/11 00:56:48;;;;;;;;;2.75;2.75;;;;;24.98;38.16;100924.13;5084194;27;45917;-78
2023/07/11 00:59:16;;;;;;;;;5.25;3.25;;;;;24.99;38.53;100935.84;5077414;27;45377;-78
2023/07/11 01:01:47;;;;;;;;;3.75;3.75;;;;;25.01;38.67;100943.91;5091266;27;45335;-77
2023/07/11 01:04:14;;;;;;;;;5.25;4.50;;;;;24.93;38.92;100926.50;5097533;27;45401;-78
2023/07/11 01:06:40;;;;;;;;;3.00;3.00;;;;;24.89;39.23;100929.75;5086847;27;45236;-77
2023/07/11 01:09:06;;;;;;;;;3.00;3.00;;;;;24.79;39.17;100915.47;5096832;27;45436;-77
2023/07/11 01:11:51;;;;;;;;;4.00;3.25;;;;;24.92;39.00;100943.88;5083626;27;45581;-79
2023/07/11 01:14:16;;;;;;;;;2.75;2.00;;;;;24.91;38.82;100941.31;5077014;27;46176;-78
2023/07/11 01:16:43;;;;;;;;;2.25;2.25;;;;;24.89;39.35;100938.78;5076797;27;45413;-79
2023/07/11 01:19:11;;;;;;;;;3.00;3.00;;;;;24.84;39.21;100929.41;5077536;27;45394;-78
2023/07/11 01:21:36;;;;;;;;;4.00;4.00;;;;;24.88;39.55;100933.50;5077487;27;45516;-78
2023/07/11 01:24:02;;;;;;;;;2.00;2.00;;;;;24.85;39.34;100934.66;5076739;27;46512;-78
2023/07/11 01:26:29;;;;;;;;;3.50;3.50;;;;;24.62;39.78;100895.59;5076413;27;45533;-78
2023/07/11 01:28:55;;;;;;;;;2.75;2.75;;;;;24.64;39.68;100899.00;5077019;27;45334;-78
2023/07/11 01:31:21;;;;;;;;;2.50;2.50;;;;;24.46;39.66;100868.38;5075635;27;45538;-78
2023/07/11 01:33:46;;;;;;;;;2.00;2.00;;;;;24.78;39.77;100927.38;5075422;27;48191;-77
2023/07/11 01:36:11;;;;;;;;;2.75;2.75;;;;;24.63;39.70;100903.59;5076450;27;45429;-77
2023/07/11 01:38:37;;;;;;;;;1.00;1.00;;;;;24.42;39.71;100878.75;5080542;27;45518;-79
2023/07/11 01:41:02;;;;;;;;;4.00;4.00;;;;;24.56;39.90;100890.81;5088119;27;45543;-78
2023/07/11 01:43:28;;;;;;;;;3.00;3.00;;;;;24.74;40.45;100926.88;5076755;28;46288;-77
2023/07/11 01:45:53;;;;;;;;;2.50;2.50;;;;;24.73;39.75;100927.00;5076413;27;45318;-78
2023/07/11 01:48:19;;;;;;;;;3.00;3.00;;;;;24.69;40.11;100918.34;5075258;28;45295;-78
2023/07/11 01:50:44;;;;;;;;;3.50;2.25;;;;;24.67;40.27;100917.69;5076487;27;45592;-78
2023/07/11 01:53:10;;;;;;;;;3.50;3.50;;;;;24.56;40.38;100905.25;5076909;27;45480;-78
2023/07/11 01:55:35;;;;;;;;;2.25;2.25;;;;;24.62;40.37;100923.63;5077442;27;45571;-78
2023/07/11 01:58:00;;;;;;;;;3.50;3.00;;;;;24.61;40.81;100910.19;5097185;27;45261;-78
2023/07/11 02:00:26;;;;;;;;;2.50;2.50;;;;;24.49;40.65;100890.66;5090190;27;45825;-78
2023/07/11 02:02:51;;;;;;;;;2.75;1.50;;;;;24.60;40.91;100909.34;5076812;28;46185;-78
2023/07/11 02:05:17;;;;;;;;;1.25;1.25;;;;;24.59;40.47;100906.78;5075586;27;45462;-77
2023/07/11 02:07:45;;;;;;;;;2.75;2.75;;;;;24.51;40.82;100894.06;5076672;27;45719;-78
2023/07/11 02:10:11;;;;;;;;;2.25;2.25;;;;;24.55;40.93;100900.84;5079315;27;45299;-78
2023/07/11 02:12:36;;;;;;;;;3.50;2.00;;;;;24.39;40.83;100877.22;5095362;27;46063;-79
2023/07/11 02:15:02;;;;;;;;;2.25;2.25;;;;;24.53;41.40;100902.03;5096726;27;45346;-78
2023/07/11 02:17:27;;;;;;;;;3.00;1.00;;;;;24.49;41.19;100896.09;5094495;27;45791;-78
2023/07/11 02:19:52;;;;;;;;;4.00;3.00;;;;;24.47;41.16;100898.09;5096915;27;45553;-77
2023/07/11 02:22:18;;;;;;;;;4.50;2.25;;;;;24.36;41.03;100874.84;5095434;27;45334;-78
2023/07/11 02:24:43;;;;;;;;;5.25;2.50;;;;;24.40;41.62;100878.06;5096392;27;45423;-78
2023/07/11 02:27:09;;;;;;;;;3.50;3.00;;;;;24.37;41.49;100883.84;5079260;27;45452;-78
2023/07/11 02:29:34;;;;;;;;;0.50;0.50;;;;;24.13;41.32;100838.44;5076364;28;45542;-77
2023/07/11 02:32:01;;;;;;;;;4.50;3.75;;;;;23.83;41.46;100796.44;5090481;27;47207;-77
2023/07/11 02:34:26;;;;;;;;;2.00;1.75;;;;;24.24;41.99;100853.56;5096322;27;45324;-77
2023/07/11 02:36:51;;;;;;;;;2.75;2.75;;;;;24.09;41.82;100832.50;5079872;27;45381;-77
2023/07/11 02:39:17;;;;;;;;;2.25;2.25;;;;;24.00;42.05;100825.34;5074878;27;45524;-77
2023/07/11 02:41:43;;;;;;;;;2.50;2.50;;;;;24.32;42.05;100876.19;5089362;27;46268;-78
2023/07/11 02:44:09;;;;;;;;;3.00;0.00;;;;;24.22;42.28;100864.59;5096286;27;45785;-77
2023/07/11 02:46:35;;;;;;;;;1.25;1.25;;;;;24.17;42.04;100852.53;5088213;27;45516;-77
2023/07/11 02:49:01;;;;;;;;;4.00;2.75;;;;;24.12;42.40;100856.59;5084434;27;45667;-77
2023/07/11 02:51:26;;;;;;;;;2.00;2.00;;;;;24.17;42.10;100857.97;5096199;27;45440;-77
2023/07/11 02:53:51;;;;;;;;;3.75;2.75;;;;;24.10;42.50;100844.22;5096203;27;45422;-77
2023/07/11 02:56:18;;;;;;;;;4.00;2.75;;;;;24.12;42.57;100848.44;5078110;27;45432;-77
2023/07/11 02:58:44;;;;;;;;;2.25;2.25;;;;;23.95;42.18;100824.97;5075844;27;45607;-77
2023/07/11 03:01:10;;;;;;;;;3.25;3.25;;;;;24.21;42.66;100864.75;5075310;27;45958;-77
2023/07/11 03:03:35;;;;;;;;;2.50;2.50;;;;;23.67;42.99;100770.09;5075655;27;45337;-76
2023/07/11 03:06:00;;;;;;;;;4.00;4.00;;;;;24.12;42.85;100847.59;5075857;28;45409;-78
2023/07/11 03:08:26;;;;;;;;;5.00;1.75;;;;;24.15;42.89;100851.84;5085533;27;45274;-78
2023/07/11 03:10:52;;;;;;;;;3.00;2.75;;;;;24.14;42.55;100848.28;5077007;27;46447;-78
2023/07/11 03:13:20;;;;;;;;;2.50;2.50;;;;;24.12;42.92;100847.59;5083284;27;45260;-77
2023/07/11 03:15:46;;;;;;;;;5.25;2.25;;;;;24.00;42.63;100825.34;5095635;27;45374;-77
2023/07/11 03:18:13;;;;;;;;;3.25;2.00;;;;;24.05;42.47;100844.69;5079166;28;45663;-77
2023/07/11 03:20:40;;;;;;;;;4.75;4.75;;;;;24.09;42.91;100843.34;5092940;27;45465;-78
2023/07/11 03:23:07;;;;;;;;;2.50;2.50;;;;;24.02;42.90;100828.72;5099292;27;45239;-78
2023/07/11 03:25:32;;;;;;;;;3.75;2.75;;;;;23.98;43.00;100824.66;5090848;27;45426;-77
2023/07/11 03:27:58;;;;;;;;;3.50;3.50;;;;;23.92;43.01;100817.16;5079215;27;45417;-77
2023/07/11 03:30:23;;;;;;;;;2.75;2.75;;;;;24.01;43.26;100829.75;5090908;27;45664;-78
2023/07/11 03:32:48;;;;;;;;;3.25;2.00;;;;;23.99;43.03;100831.78;5099200;27;45202;-78
2023/07/11 03:35:14;;;;;;;;;1.50;1.50;;;;;24.02;43.25;100834.16;5099717;27;45284;-77
2023/07/11 03:37:39;;;;;;;;;3.50;2.75;;;;;23.98;42.81;100821.94;5099574;27;45157;-77
2023/07/11 03:40:05;;;;;;;;;2.50;2.50;;;;;24.01;43.06;100832.47;5097676;27;46291;-78
2023/07/11 03:42:30;;;;;;;;;3.00;3.00;;;;;23.76;43.31;100784.53;5097829;27;45239;-77
2023/07/11 03:44:55;;;;;;;;;3.00;3.00;;;;;23.91;43.03;100807.31;5098995;27;45301;-77
2023/07/11 03:47:21;;;;;;;;;6.75;4.25;;;;;23.97;43.58;100820.25;5092670;27;45395;-77
2023/07/11 03:49:46;;;;;;;;;4.75;4.75;;;;;23.96;43.19;100801.38;5084831;27;46125;-77
2023/07/11 03:52:11;;;;;;;;;3.75;2.00;;;;;23.95;43.42;100808.66;5097767;27;54055;-78
2023/07/11 03:54:37;;;;;;;;;4.00;4.00;;;;;23.99;43.46;100818.19;5097723;27;45385;-77
2023/07/11 03:57:02;;;;;;;;;4.75;2.25;;;;;23.99;43.19;100812.78;5099220;27;45434;-77
2023/07/11 03:59:27;;;;;;;;;5.50;5.00;;;;;23.57;43.66;100746.78;5097799;27;45991;-77
2023/07/11 04:01:53;;;;;;;;;4.00;3.25;;;;;23.98;43.28;100811.06;5098360;27;46602;-77
2023/07/11 04:04:18;;;;;;;;;3.50;2.75;;;;;23.88;43.17;100794.06;5099525;27;45534;-78
2023/07/11 04:06:45;;;;;;;;;3.00;3.00;;;;;23.80;43.26;100791.34;5097203;27;45654;-78
2023/07/11 04:09:10;;;;;;;;;3.50;2.00;;;;;23.77;43.16;100783.53;5097782;27;46315;-76
2023/07/11 04:11:36;;;;;;;;;3.25;3.25;;;;;23.67;43.70;100780.09;5098855;27;45377;-77
2023/07/11 04:14:01;;;;;;;;;3.75;3.75;;;;;23.60;43.52;100779.09;5098981;27;45344;-77
2023/07/11 04:16:27;;;;;;;;;4.00;3.00;;;;;23.62;43.84;100771.63;5098581;27;45586;-77
2023/07/11 04:18:52;;;;;;;;;4.25;3.25;;;;;23.77;43.82;100802.53;5098420;27;45223;-77
2023/07/11 04:21:18;;;;;;;;;5.50;3.00;;;;;23.72;43.82;100792.19;5080408;27;45449;-77
2023/07/11 04:23:43;;;;;;;;;10.00;5.00;;;;;23.76;43.82;100808.97;5077029;27;45716;-77
2023/07/11 04:26:09;;;;;;;;;5.00;5.00;;;;;23.68;43.60;100787.22;5091341;27;45445;-77
2023/07/11 04:28:34;;;;;;;;;4.00;4.00;;;;;23.78;43.86;100802.38;5096150;27;48507;-77
2023/07/11 04:30:59;;;;;;;;;4.00;4.00;;;;;23.78;44.55;100804.22;5096990;27;45354;-77
2023/07/11 04:33:25;;;;;;;;;4.75;4.75;;;;;23.81;44.25;100809.31;5098453;27;45760;-76
2023/07/11 04:35:50;;;;;;;;;4.25;4.25;;;;;23.79;44.13;100786.91;5098779;27;45159;-77
2023/07/11 04:38:16;;;;;;;;;5.25;5.25;;;;;23.80;44.34;100789.47;5095772;27;47708;-77
2023/07/11 04:40:41;;;;;;;;;6.00;6.00;;;;;23.87;43.98;100797.81;5097493;27;45913;-76
2023/07/11 04:43:07;;;;;;;;;8.33;6.00;;;;;23.84;44.10;100795.44;5098089;27;45340;-77
2023/07/11 04:45:33;;;;;;;;;5.00;5.00;;;;;23.77;44.30;100784.38;5097104;27;45558;-77
2023/07/11 04:48:01;;;;;;;;;4.25;4.25;;;;;23.89;43.87;100790.34;5094766;27;46075;-77
2023/07/11 04:50:26;;;;;;;;;7.50;5.75;;;;;23.89;44.15;100787.63;5095389;27;45533;-77
2023/07/11 04:52:52;;;;;;;;;4.00;4.00;;;;;23.76;44.08;100751.94;5088938;27;45534;-78
2023/07/11 04:55:18;;;;;;;;;7.00;7.00;;;;;23.79;43.82;100759.75;5096311;27;45268;-75
2023/07/11 04:57:43;;;;;;;;;6.75;4.00;;;;;24.07;44.03;100791.03;5084312;27;45408;-78
2023/07/11 05:00:10;;;;;;;;;5.25;5.25;;;;;24.12;44.18;100788.66;5081914;27;45456;-76
2023/07/11 05:02:35;;;;;;;;;8.25;6.00;;;;;24.07;43.56;100774.72;5077537;27;45279;-77
2023/07/11 05:05:01;;;;;;;;;4.00;4.00;;;;;24.24;43.85;100791.06;5077462;27;45449;-76
2023/07/11 05:07:26;;;;;;;;;4.00;4.00;;;;;24.37;43.23;100807.75;5076873;27;46119;-77
2023/07/11 05:09:54;;;;;;;;;5.50;5.00;;;;;24.43;43.26;100798.88;5080445;27;45369;-77
2023/07/11 05:12:20;;;;;;;;;5.00;5.00;;;;;24.56;43.14;100801.94;5097991;27;45426;-78
2023/07/11 05:14:45;;;;;;;;;5.25;4.50;;;;;24.10;43.12;100711.91;5097783;27;45323;-78
2023/07/11 05:17:10;;;;;;;;;4.00;4.00;;;;;24.62;42.59;100795.81;5095973;27;45493;-78
2023/07/11 05:19:36;;;;;;;;;4.75;4.25;;;;;24.78;42.56;100810.41;5096270;27;45510;-78
2023/07/11 05:22:01;;;;;;;;;4.25;4.00;;;;;24.78;42.07;100794.94;5097476;27;45325;-78
2023/07/11 05:24:27;;;;;;;;;3.00;2.00;;;;;24.91;42.15;100816.16;5096398;27;45335;-78
2023/07/11 05:26:53;;;;;;;;;6.25;4.50;;;;;24.71;42.21;100769.44;5094575;27;47020;-77
2023/07/11 05:29:18;;;;;;;;;6.00;4.75;;;;;24.78;42.15;100758.72;5113496;27;45238;-77
2023/07/11 05:31:44;;;;;;;;;5.00;5.00;;;;;25.17;42.04;100802.34;5095338;27;45669;-78
2023/07/11 05:34:10;;;;;;;;;4.00;4.00;;;;;25.11;41.93;100771.22;5096440;27;45202;-76
2023/07/11 05:36:36;;;;;;;;;4.00;4.00;;;;;25.35;41.77;100802.09;5095230;27;46094;-75
2023/07/11 05:39:06;;;;;;;;;3.25;3.25;;;;;25.51;40.98;100796.56;5079808;27;45415;-75
2023/07/11 05:41:34;;;;;;;;;3.00;3.00;;;;;25.70;40.50;100781.69;5086982;27;45527;-75
2023/07/11 05:44:00;;;;;;;;;3.00;2.00;;;;;26.20;39.56;100786.63;5076847;27;45357;-76
2023/07/11 05:46:27;;;;;;;;;4.50;4.50;;;;;26.08;39.88;100783.47;5091329;27;46762;-76
2023/07/11 05:48:54;;;;;;;;;4.25;3.75;;;;;25.95;39.52;100774.22;5097356;27;45325;-76
2023/07/11 05:51:20;;;;;;;;;3.75;3.75;;;;;25.82;40.21;100775.66;5095948;27;45286;-78
2023/07/11 05:53:46;;;;;;;;;2.25;2.25;;;;;25.49;40.19;100731.41;5087735;27;45909;-78
2023/07/11 05:56:13;;;;;;;;;3.00;3.00;;;;;25.78;40.48;100774.34;5092835;27;45401;-79
2023/07/11 05:58:38;;;;;;;;;3.75;2.00;;;;;25.54;40.64;100739.03;5078203;27;45360;-79
2023/07/11 06:01:04;;;;;;;;;6.00;4.00;;;;;25.44;40.68;100716.63;5095516;27;45369;-78
2023/07/11 06:03:30;;;;;;;;;1.50;1.50;;;;;25.74;40.46;100759.34;5092538;27;45488;-78
2023/07/11 06:06:05;;;;;;;;;3.00;3.00;;;;;25.88;40.43;100780.38;5095214;27;46479;-78
2023/07/11 06:08:32;;;;;;;;;4.25;3.00;;;;;25.92;40.47;100772.72;5096133;27;45439;-77
2023/07/11 06:10:59;;;;;;;;;3.25;2.75;;;;;25.75;40.21;100747.44;5095836;27;45532;-76
2023/07/11 06:13:26;;;;;;;;;3.75;3.00;;;;;25.94;40.31;100772.53;5094467;27;45306;-76
2023/07/11 06:15:59;;;;;;;;;4.50;4.00;;;;;25.83;40.44;100752.84;5096277;27;46190;-76
2023/07/11 06:18:26;;;;;;;;;2.20;2.20;;;;;25.95;40.16;100764.16;5094542;27;45358;-76
2023/07/11 06:20:51;;;;;;;;;3.00;3.00;;;;;26.07;39.86;100778.22;5095454;27;45471;-77
2023/07/11 06:23:18;;;;;;;;;4.00;4.00;;;;;25.94;40.12;100734.38;5109633;27;45877;-78
2023/07/11 06:25:44;;;;;;;;;3.75;2.25;;;;;26.04;39.77;100744.00;5088472;27;47329;-78
2023/07/11 06:28:09;;;;;;;;;5.75;4.00;;;;;26.30;39.78;100772.72;5089750;27;45619;-75
2023/07/11 06:30:34;;;;;;;;;3.50;3.00;;;;;26.37;39.99;100768.28;5095075;27;51290;-78
2023/07/11 06:33:00;;;;;;;;;7.00;4.75;;;;;26.51;39.87;100766.59;5096203;27;45580;-78
2023/07/11 06:35:25;;;;;;;;;4.25;4.25;;;;;26.54;39.32;100747.97;5095779;27;46351;-78
2023/07/11 06:37:51;;;;;;;;;7.25;5.50;;;;;26.75;39.53;100755.44;5094968;27;45555;-77
2023/07/11 06:40:16;;;;;;;;;6.00;4.25;;;;;26.97;39.05;100770.06;5094060;27;45536;-78
2023/07/11 06:42:41;;;;;;;;;3.25;3.25;;;;;27.00;39.17;100765.06;5092990;27;45581;-78
2023/07/11 06:45:07;;;;;;;;;4.25;3.50;;;;;27.10;39.14;100766.69;5094199;27;48217;-78
2023/07/11 06:47:33;;;;;;;;;3.00;3.00;;;;;27.20;39.12;100759.03;5098100;27;45436;-77
2023/07/11 06:49:59;;;;;;;;;4.75;4.75;;;;;27.51;37.67;100734.22;5100040;27;45258;-78
2023/07/11 06:52:24;;;;;;;;;5.00;4.50;;;;;27.99;37.16;100759.97;5100364;27;45623;-77
2023/07/11 06:54:50;;;;;;;;;4.75;3.25;;;;;28.30;36.59;100759.66;5099673;27;46276;-76
2023/07/11 06:57:15;;;;;;;;;2.75;2.75;;;;;28.49;35.92;100741.72;5081206;27;46255;-78
2023/07/11 06:59:41;;;;;;;;;3.25;3.00;;;;;28.37;36.46;100762.44;5099795;27;45402;-77
2023/07/11 07:02:08;;;;;;;;;5.00;4.00;;;;;28.05;36.85;100756.47;5099946;27;45263;-78
2023/07/11 07:04:34;;;;;;;;;5.00;4.25;;;;;27.72;37.65;100727.94;5099489;27;45305;-78
2023/07/11 07:06:59;;;;;;;;;6.75;5.00;;;;;27.66;37.30;100736.94;5099983;27;45788;-76
2023/07/11 07:09:26;;;;;;;;;9.50;4.75;;;;;27.60;37.98;100747.53;5100490;27;45597;-79
2023/07/11 07:11:51;;;;;;;;;3.00;3.00;;;;;27.48;38.08;100743.66;5099947;27;45538;-78
2023/07/11 07:14:18;;;;;;;;;4.50;2.75;;;;;27.46;37.92;100748.44;5099299;27;45600;-77
2023/07/11 07:16:44;;;;;;;;;4.40;3.60;;;;;27.44;37.99;100750.50;5099225;27;45303;-78
2023/07/11 07:19:11;;;;;;;;;7.00;4.50;;;;;27.44;38.38;100749.66;5098211;27;45449;-77
2023/07/11 07:21:36;;;;;;;;;3.50;3.50;;;;;27.40;38.15;100743.75;5099405;27;45576;-78
2023/07/11 07:24:02;;;;;;;;;3.75;2.50;;;;;27.33;37.96;100731.88;5098856;27;46673;-76
2023/07/11 07:26:27;;;;;;;;;6.50;3.00;;;;;27.41;38.05;100750.91;5098101;27;45198;-76
2023/07/11 07:28:53;;;;;;;;;4.00;4.00;;;;;27.43;38.28;100743.38;5099052;27;45409;-77
2023/07/11 07:31:18;;;;;;;;;3.00;3.00;;;;;27.37;38.32;100744.16;5098735;27;45553;-78
2023/07/11 07:33:43;;;;;;;;;5.00;3.50;;;;;27.17;37.98;100704.81;5097467;27;47438;-78
2023/07/11 07:36:11;;;;;;;;;4.00;4.00;;;;;27.41;38.40;100733.69;5097694;27;45760;-79
2023/07/11 07:38:36;;;;;;;;;3.00;3.00;;;;;27.28;38.57;100717.97;5098090;27;45587;-79
2023/07/11 07:41:04;;;;;;;;;3.00;3.00;;;;;27.42;38.05;100730.75;5099235;27;45518;-79
2023/07/11 07:43:31;;;;;;;;;2.00;2.00;;;;;27.38;38.11;100715.78;5098867;27;45661;-78
2023/07/11 07:45:58;;;;;;;;;3.40;3.40;;;;;27.33;38.31;100699.13;5098706;27;45378;-76
2023/07/11 07:48:25;;;;;;;;;4.75;3.00;;;;;27.47;38.43;100720.06;5099038;27;45459;-78
2023/07/11 07:50:50;;;;;;;;;2.50;2.50;;;;;27.49;38.55;100723.50;5099064;27;45250;-77
2023/07/11 07:53:16;;;;;;;;;3.25;3.25;;;;;27.29;38.00;100714.22;5097291;27;47157;-78
2023/07/11 07:55:42;;;;;;;;;5.00;4.00;;;;;27.43;38.33;100718.78;5098718;27;45649;-77
2023/07/11 07:58:08;;;;;;;;;5.00;4.00;;;;;27.43;38.11;100720.66;5097361;27;45332;-77
2023/07/11 08:00:33;;;;;;;;;3.00;3.00;;;;;27.38;38.12;100715.78;5098751;27;45584;-77
2023/07/11 08:02:59;;;;;;;;;4.00;4.00;;;;;27.48;38.38;100719.06;5098962;27;45324;-78
2023/07/11 08:05:25;;;;;;;;;4.00;4.00;;;;;27.28;38.16;100698.88;5099109;27;45310;-78
2023/07/11 08:07:51;;;;;;;;;0.75;0.75;;;;;27.26;38.35;100720.06;5099211;27;45365;-78
2023/07/11 08:10:17;;;;;;;;;5.00;5.00;;;;;27.25;38.46;100719.22;5098879;27;45602;-78
2023/07/11 08:12:43;;;;;;;;;5.75;2.75;;;;;27.23;38.66;100709.53;5098334;27;46303;-77
2023/07/11 08:15:10;;;;;;;;;2.50;2.25;;;;;27.12;39.02;100696.38;5098290;27;45329;-77
2023/07/11 08:17:36;;;;;;;;;5.20;3.40;;;;;27.22;39.38;100707.84;5097132;27;45254;-78
2023/07/11 08:20:05;;;;;;;;;5.00;5.00;;;;;27.10;38.93;100684.78;5098972;27;45282;-78
2023/07/11 08:22:31;;;;;;;;;4.50;4.00;;;;;27.17;39.38;100699.34;5098653;27;46010;-78
2023/07/11 08:24:56;;;;;;;;;3.25;2.00;;;;;27.08;39.48;100676.75;5098310;27;45412;-78
2023/07/11 08:27:22;;;;;;;;;4.00;4.00;;;;;27.18;39.37;100687.41;5098711;27;45431;-78
2023/07/11 08:29:48;;;;;;;;;3.00;3.00;;;;;27.13;39.15;100676.22;5098661;27;45518;-79
2023/07/11 08:32:14;;;;;;;;;5.25;3.50;;;;;27.24;39.18;100690.22;5098040;27;45429;-78
2023/07/11 08:34:40;;;;;;;;;4.00;4.00;;;;;27.27;38.76;100683.53;5098209;27;45409;-77
2023/07/11 08:37:05;;;;;;;;;5.60;4.00;;;;;27.32;38.84;100684.63;5098475;27;45309;-77
2023/07/11 08:39:31;;;;;;;;;5.25;2.25;;;;;27.38;39.07;100677.56;5098706;27;45600;-78
2023/07/11 08:42:06;;;;;;;;;2.75;2.75;;;;;27.50;39.18;100677.91;5098109;27;46185;-78
2023/07/11 08:44:45;;;;;;;;;4.40;4.40;;;;;27.61;38.53;100680.97;5098419;27;45564;-78
2023/07/11 08:47:24;;;;;;;;;4.60;4.60;;;;;27.70;39.00;100678.13;5098188;27;45395;-78
2023/07/11 08:50:04;;;;;;;;;4.00;4.00;;;;;27.76;38.37;100675.47;5098176;27;45325;-78
2023/07/11 08:52:32;;;;;;;;;4.50;3.00;;;;;27.75;38.15;100672.94;5097827;27;45360;-77
2023/07/11 08:55:05;;;;;;;;;4.60;3.60;;;;;27.77;38.13;100668.09;5097769;27;45482;-78
2023/07/11 08:57:36;;;;;;;;;3.80;3.80;;;;;27.69;38.48;100665.50;5098006;27;45414;-77
2023/07/11 09:00:14;;;;;;;;;4.00;4.00;;;;;27.79;38.64;100671.47;5098458;27;45435;-78
2023/07/11 09:02:52;;;;;;;;;6.60;4.00;;;;;27.55;38.13;100627.09;5096206;27;46810;-78
2023/07/11 09:05:26;;;;;;;;;6.00;4.60;;;;;27.75;38.66;100659.25;5096027;27;45395;-77
2023/07/11 09:07:53;;;;;;;;;4.75;4.75;;;;;27.73;39.04;100653.13;5097777;27;45393;-78
2023/07/11 09:10:43;;;;;;;;;4.50;4.50;;;;;27.73;38.28;100650.38;5097775;27;45642;-78
2023/07/11 09:13:39;;;;;;;;;4.50;4.50;;;;;27.83;38.85;100657.22;5097462;27;45394;-78
2023/07/11 09:16:10;;;;;;;;;3.20;3.20;;;;;27.91;38.18;100646.16;5097821;27;45318;-78
2023/07/11 09:19:02;;;;;;;;;4.00;4.00;;;;;27.87;38.10;100630.38;5097967;27;45461;-78
2023/07/11 09:21:57;;;;;;;;;4.00;4.00;;;;;27.90;38.73;100641.75;5097634;27;45416;-78
2023/07/11 09:24:37;;;;;;;;;2.75;2.75;;;;;27.94;38.65;100633.97;5097235;27;45316;-77
2023/07/11 09:27:34;;;;;;;;;3.40;3.40;;;;;28.05;38.85;100636.16;5097471;27;45435;-79
2023/07/11 09:30:02;;;;;;;;;2.60;2.60;;;;;28.12;38.07;100628.84;5097505;27;45458;-79
2023/07/11 09:32:34;;;;;;;;;4.00;4.00;;;;;28.14;38.04;100636.88;5097279;27;45428;-77
2023/07/11 09:35:26;;;;;;;;;5.25;5.25;;;;;28.06;38.02;100624.19;5096933;27;45472;-79
2023/07/11 09:37:59;;;;;;;;;3.80;3.80;;;;;28.00;38.20;100629.63;5096018;27;45563;-78
2023/07/11 09:40:39;;;;;;;;;4.80;3.80;;;;;27.98;39.05;100626.22;5097181;27;45324;-78
2023/07/11 09:43:05;;;;;;;;;3.25;3.25;;;;;27.99;38.47;100617.81;5097576;27;45423;-78
2023/07/11 09:45:36;;;;;;;;;6.00;4.00;;;;;27.99;38.92;100616.97;5096874;27;45402;-77
2023/07/11 09:48:27;;;;;;;;;4.20;3.40;;;;;28.16;38.58;100621.94;5097084;27;45402;-77
2023/07/11 09:51:01;;;;;;;;;6.00;6.00;;;;;28.17;38.63;100612.72;5097018;27;45300;-77
2023/07/11 09:53:29;;;;;;;;;8.00;5.25;;;;;28.20;37.97;100614.19;5097238;27;45357;-77
2023/07/11 09:56:03;;;;;;;;;3.00;3.00;;;;;28.30;38.63;100608.41;5095544;27;48110;-78
2023/07/11 09:58:31;;;;;;;;;3.80;3.80;;;;;28.38;38.40;100609.06;5096046;27;45250;-78
2023/07/11 10:01:00;;;;;;;;;2.80;2.80;;;;;28.28;37.69;100577.69;5097446;27;45324;-78
2023/07/11 10:03:29;;;;;;;;;3.75;3.50;;;;;28.49;37.34;100603.03;5096961;27;45546;-78
2023/07/11 10:05:54;;;;;;;;;3.80;3.80;;;;;28.55;37.39;100595.91;5096395;27;45301;-77
2023/07/11 10:08:48;;;;;;;;;8.75;5.00;;;;;28.51;37.18;100594.63;5096647;27;45265;-78
2023/07/11 10:11:14;;;;;;;;;4.40;4.40;;;;;28.51;37.36;100600.09;5094727;27;45493;-78
2023/07/11 10:13:45;;;;;;;;;5.25;5.25;;;;;28.38;37.08;100565.28;5097213;27;45404;-78
2023/07/11 10:16:15;;;;;;;;;6.00;4.80;;;;;28.62;36.85;100574.88;5095463;27;46147;-78
2023/07/11 10:18:43;;;;;;;;;6.00;3.20;;;;;28.71;36.23;100586.50;5096987;27;45284;-77
2023/07/11 10:21:18;;;;;;;;;4.60;4.00;;;;;28.74;36.41;100573.25;5097146;27;45298;-78
2023/07/11 10:23:46;;;;;;;;;5.50;3.75;;;;;28.81;36.58;100566.97;5100301;27;45417;-78
2023/07/11 10:26:20;;;;;;;;;7.00;5.50;;;;;28.83;36.42;100564.88;5098991;27;46384;-78
2023/07/11 10:28:58;;;;;;;;;3.20;2.60;;;;;28.88;36.75;100567.84;5098513;27;45423;-77
2023/07/11 10:31:58;;;;;;;;;4.20;4.20;;;;;28.92;36.03;100558.19;5100115;27;45235;-79
2023/07/11 10:34:38;;;;;;;;;4.75;4.00;;;;;28.88;36.21;100557.75;5066061;27;45426;-77
2023/07/11 10:37:21;;;;;;;;;5.40;4.60;;;;;28.74;36.43;100531.34;5099861;27;45287;-79
2023/07/11 10:39:51;;;;;;;;;3.20;3.20;;;;;28.88;36.66;100549.53;5098654;27;45360;-78
2023/07/11 10:42:35;;;;;;;;;6.40;5.00;;;;;29.03;36.54;100549.34;5099797;27;45350;-77
2023/07/11 10:45:07;;;;;;;;;9.75;8.25;;;;;28.91;37.11;100518.16;5098514;27;45252;-78
2023/07/11 10:47:38;;;;;;;;;5.00;5.00;;;;;29.10;36.13;100543.91;5099642;27;46266;-78
2023/07/11 10:50:23;;;;;;;;;6.00;3.60;;;;;29.13;36.44;100530.63;5099729;27;45521;-78
2023/07/11 10:52:53;;;;;;;;;5.20;4.00;;;;;29.33;36.30;100541.63;5099898;27;45348;-77
2023/07/11 10:55:25;;;;;;;;;3.50;3.50;;;;;29.34;35.54;100535.94;5099989;27;45566;-78
2023/07/11 10:57:53;;;;;;;;;3.60;1.80;;;;;29.33;35.65;100534.25;5099561;27;45520;-78
2023/07/11 11:00:38;;;;;;;;;3.20;3.20;;;;;29.29;35.76;100502.00;5099366;27;45268;-78
2023/07/11 11:03:17;;;;;;;;;2.80;2.80;;;;;29.59;35.51;100532.59;5098254;27;45412;-78
2023/07/11 11:05:53;;;;;;;;;4.60;4.60;;;;;29.70;35.34;100521.00;5100094;27;45233;-78
2023/07/11 11:08:44;;;;;;;;;2.80;2.80;;;;;29.80;34.62;100515.91;5097816;27;48507;-77
2023/07/11 11:11:25;;;;;;;;;5.40;4.80;;;;;29.79;34.54;100503.25;5098370;27;45412;-79
2023/07/11 11:14:17;;;;;;;;;5.80;3.60;;;;;29.97;34.75;100502.59;5099374;27;45602;-79
2023/07/11 11:16:54;;;;;;;;;4.80;3.80;;;;;30.05;34.22;100504.25;5099960;27;45228;-77
2023/07/11 11:19:45;;;;;;;;;5.80;3.60;;;;;30.05;34.30;100496.03;5099227;27;45393;-78
2023/07/11 11:22:10;;;;;;;;;7.00;5.00;;;;;30.27;34.11;100502.94;5099738;27;45511;-79
2023/07/11 11:24:38;;;;;;;;;3.00;3.00;;;;;30.34;33.60;100489.19;5099569;27;45262;-79
2023/07/11 11:27:47;;;;;;;;;3.40;3.40;;;;;30.59;33.65;100500.25;5099352;27;45500;-79
2023/07/11 11:30:25;;;;;;;;;4.20;3.80;;;;;30.87;33.36;100497.19;5099404;27;45264;-77